Miriam Vale Town Of 1770, Queensland

12:13 PM AEST on August 31, 2016 (GMT +1000)
Gladstone | | Change Station

Elev 62 ft 23.87 °S, 151.22 °E | Updated 1 hour ago

Overcast
Overcast
73 °F
Feels Like 73 °F
N
5
Wind Variable Wind from SE

Today
High -- | Low -- °F
--% Chance of Precip.
Yesterday
High -- | Low -- °F
Precip. -- in
Pressure 30.24 in
Visibility 6.2 miles
Clouds Scattered Clouds 2500 ft
Scattered Clouds 3200 ft
Overcast 5400 ft
Dew Point 59 °F
Humidity 61%
Rainfall 0.00 in
Snow Depth Not available.
6:04 AM 5:41 PM
Waning Crescent, 2% visible
METAR YGLA 310100Z AUTO 13004KT 9999 // SCT025 SCT032 OVC054 23/15 Q1024
Pressure 30.24 in
Visibility 6.2 miles
Clouds Scattered Clouds 2500 ft
Scattered Clouds 3200 ft
Overcast 5400 ft
Dew Point 59 °F
Humidity 61%
Rainfall 0.00 in
Snow Depth Not available.
6:04 AM 5:41 PM
Waning Crescent, 2% visible
METAR YGLA 310100Z AUTO 13004KT 9999 // SCT025 SCT032 OVC054 23/15 Q1024

10-Day Weather Forecast

Almanac

Astronomy

Aug. 31, 2016 Rise Set
Actual Time
Civil Twilight
Nautical Twilight
Astronomical Twilight
Moon
Length of Visible Light
Length of Day
Tomorrow will be .
, % of the Moon is Illuminated

Today's Extremes

Country Highs Country Lows

Community

WunderPhotos

Upload Photos

1,935,993 photos uploaded!

WunderBlog® & News

Nearby

Air Quality

  Air Quality AQ Index Pollutant
Not available.

Snow Depth

Station Depth Elevation

Earthquake Activity

City Distance Mag. Time & Date
Minimum magnitude displayed is 2.5.

Coastal Water Temperatures

Place Temperature

Stations

Nearby Weather Stations

Station Location Temp. Windchill Dew Point Humidity Wind Precip. Elev Updated Type